Terminal Aerodrome Forecast
Issued by NWS

Home | Current Version | Previous Version | Text Only | Print | Product List | Glossary On
Versions: 1 2 3 4 5 6 7 8 9 10 11 12 13 14
000
FTUS41 KCAR 282300
TAFFVE
TAF
KFVE 282320Z 2900/2924 35015G21KT P6SM OVC018
     FM290100 35012KT 6SM -SHRA OVC015
     FM290430 36011KT P6SM SCT025
     FM290700 34006KT P6SM FEW050=

USA.gov is the U.S. government's official web portal to all federal, state and local government web resources and services.